KMCF Airport (Macdill Afb) Information

FAA: MCF - ICAO: KMCF

KMCF Airport Location

State Florida
County Hillsborough
City Tampa
KMCF Airport is 4 miles south of Tampa, FL.
Latitude 27-50-57.6299N
Longitude 082-31-16.3797W
Elevation 14ft

KMCF Airport METARs

METAR KMCF 161757Z AUTO 23009KT 9SM -RA FEW005 SCT026 BKN040 26/14 A2996 RMK AO2 LTG DSNT NW SLP148 FZRANO $
Altimeter 29.96"
Temperature 26.0°C (78.8°F)
Wind 230° at 9KT
Clouds few at 500ft scattered at 2,600ft broken at 4,000ft
Visibility 9.0mi
Time observed: 2021-09-16T17:57:00Z

KMCF Airport Details

Status Operational
Activation May 1941
Ownership Military - Air Force
Usage Private
Chart MIAMI
ATC on-site Yes
Beacon schedule sunset-sunrise
Beacon color clear green

KMCF Airport Contacts

Owner USAF
Owner address MACDILL AFB, TAMPA, FL 33608
Owner phone N/A
Manager GIL LEAN
Manager address 3001 WEST M. L. KING BLVD, TAMPA, FL 33607
Manager phone 813-554-8213

KMCF Airport (Macdill Afb) Radio Frequencies

KMCF (Airport) Radio Frequencies

UNICOM N/A
Common traffic advisory frequency (CTAF) N/A